Time;durP1;ratioP1;P1;durP2;ratioP2;P2;SDS_P1;SDS_P2;PMS_P1;PMS_P2;Temp;Humidity;BMP_temperature;BMP_pressure;BME280_temperature;BME280_humidity;BME280_pressure;Samples;Min_cycle;Max_cycle;Signal;HPM_P1;HPM_P2
2023/04/19 00:00:09;;;;;;;7.03;3.97;;;8.90;99.90;;;;;;4990586;28;20194;-72
2023/04/19 00:02:35;;;;;;;10.10;5.60;;;8.90;99.90;;;;;;4989006;28;20180;-72
2023/04/19 00:05:01;;;;;;;6.73;4.07;;;8.90;99.90;;;;;;4990072;28;20438;-72
2023/04/19 00:07:27;;;;;;;9.57;5.20;;;8.80;99.90;;;;;;4989393;28;20454;-72
2023/04/19 00:09:52;;;;;;;10.47;4.80;;;8.90;99.90;;;;;;4990313;28;20508;-72
2023/04/19 00:12:18;;;;;;;7.63;4.20;;;8.90;99.90;;;;;;4990573;28;20630;-72
2023/04/19 00:14:44;;;;;;;8.47;4.90;;;8.90;99.90;;;;;;4990123;28;20179;-72
2023/04/19 00:17:10;;;;;;;8.07;4.10;;;8.90;99.90;;;;;;4990094;28;20218;-72
2023/04/19 00:19:37;;;;;;;11.73;5.37;;;8.90;99.90;;;;;;4990879;28;20935;-72
2023/04/19 00:22:02;;;;;;;10.77;4.87;;;8.90;99.90;;;;;;4990273;28;20429;-72
2023/04/19 00:24:28;;;;;;;9.83;5.07;;;8.90;99.90;;;;;;4989912;28;20411;-72
2023/04/19 00:26:54;;;;;;;10.90;5.00;;;8.80;99.90;;;;;;4990064;28;20175;-72
2023/04/19 00:29:19;;;;;;;9.30;5.77;;;8.90;99.90;;;;;;4990153;28;20605;-72
2023/04/19 00:31:45;;;;;;;12.13;5.43;;;8.90;99.90;;;;;;4989673;28;20176;-72
2023/04/19 00:34:10;;;;;;;10.27;5.57;;;8.90;99.90;;;;;;4990009;28;20245;-72
2023/04/19 00:36:36;;;;;;;11.40;6.13;;;8.80;99.90;;;;;;4988933;28;20180;-72
2023/04/19 00:39:02;;;;;;;9.97;5.73;;;8.80;99.90;;;;;;4989816;28;20187;-72
2023/04/19 00:41:28;;;;;;;10.60;5.80;;;8.80;99.90;;;;;;4989470;28;20211;-72
2023/04/19 00:43:53;;;;;;;9.20;5.20;;;8.70;99.90;;;;;;4987304;28;20553;-72
2023/04/19 00:46:20;;;;;;;8.27;5.00;;;8.80;99.90;;;;;;4988429;28;20190;-72
2023/04/19 00:48:46;;;;;;;12.60;5.20;;;8.70;99.90;;;;;;4987222;28;20520;-72
2023/04/19 00:51:12;;;;;;;12.73;6.10;;;8.80;99.90;;;;;;4989459;28;20842;-72
2023/04/19 00:53:39;;;;;;;12.67;6.90;;;8.70;99.90;;;;;;4989565;28;20432;-72
2023/04/19 00:56:05;;;;;;;13.47;6.77;;;8.70;99.90;;;;;;4988382;28;20686;-72
2023/04/19 00:58:31;;;;;;;13.97;6.87;;;8.70;99.90;;;;;;4989448;28;20411;-72
2023/04/19 01:00:57;;;;;;;14.80;5.63;;;8.70;99.90;;;;;;4989276;28;20427;-72
2023/04/19 01:03:22;;;;;;;9.50;5.17;;;8.70;99.90;;;;;;4988763;28;20222;-72
2023/04/19 01:05:48;;;;;;;10.57;5.20;;;8.70;99.90;;;;;;4989036;28;20318;-72
2023/04/19 01:08:14;;;;;;;10.97;5.73;;;8.70;99.90;;;;;;4989300;28;20834;-72
2023/04/19 01:10:39;;;;;;;8.43;5.13;;;8.60;99.90;;;;;;4987952;28;20212;-72
2023/04/19 01:13:05;;;;;;;8.33;5.17;;;8.70;99.90;;;;;;4989362;28;20183;-72
2023/04/19 01:15:31;;;;;;;8.77;5.70;;;8.70;99.90;;;;;;4988502;28;20207;-72
2023/04/19 01:17:56;;;;;;;10.60;5.50;;;8.70;99.90;;;;;;4988861;28;20187;-72
2023/04/19 01:20:22;;;;;;;21.50;6.47;;;8.70;99.90;;;;;;4988293;28;20335;-72
2023/04/19 01:22:48;;;;;;;14.37;6.33;;;8.60;99.90;;;;;;4988805;28;20192;-72
2023/04/19 01:25:14;;;;;;;11.90;5.50;;;8.60;99.90;;;;;;4989413;28;20192;-72
2023/04/19 01:27:39;;;;;;;15.43;6.43;;;8.60;99.90;;;;;;4989619;28;20180;-72
2023/04/19 01:30:06;;;;;;;11.23;5.03;;;8.60;99.90;;;;;;4987736;28;20528;-72
2023/04/19 01:32:31;;;;;;;11.97;5.50;;;8.60;99.90;;;;;;4985744;28;20191;-72
2023/04/19 01:34:57;;;;;;;11.60;5.40;;;8.60;99.90;;;;;;4986908;28;20802;-73
2023/04/19 01:37:22;;;;;;;9.60;5.57;;;8.60;99.90;;;;;;4988913;28;20184;-72
2023/04/19 01:39:48;;;;;;;22.00;5.93;;;8.60;99.90;;;;;;4987891;28;20291;-72
2023/04/19 01:42:14;;;;;;;13.93;6.67;;;8.60;99.90;;;;;;4989615;28;20629;-73
2023/04/19 01:44:40;;;;;;;14.13;7.03;;;8.60;99.90;;;;;;4989190;28;20193;-73
2023/04/19 01:47:05;;;;;;;13.93;7.17;;;8.60;99.90;;;;;;4989003;28;20219;-72
2023/04/19 01:49:31;;;;;;;13.40;6.93;;;8.50;99.90;;;;;;4989019;28;20809;-73
2023/04/19 01:51:56;;;;;;;15.33;6.23;;;8.50;99.90;;;;;;4991909;28;20281;-73
2023/04/19 01:54:22;;;;;;;15.70;5.63;;;8.50;99.90;;;;;;4994132;28;20194;-72
2023/04/19 01:56:48;;;;;;;11.70;5.60;;;8.40;99.90;;;;;;4992280;28;20179;-72
2023/04/19 01:59:13;;;;;;;11.83;6.30;;;8.50;99.90;;;;;;4993833;28;20633;-72
2023/04/19 02:01:39;;;;;;;13.43;6.40;;;8.50;99.90;;;;;;4991753;28;20199;-72
2023/04/19 02:04:06;;;;;;;16.33;7.07;;;8.50;99.90;;;;;;4991071;28;20187;-72
2023/04/19 02:06:32;;;;;;;11.03;6.70;;;8.40;99.90;;;;;;4990137;28;20282;-72
2023/04/19 02:08:58;;;;;;;8.90;5.67;;;8.50;99.90;;;;;;4991703;28;20908;-72
2023/04/19 02:11:23;;;;;;;10.70;6.63;;;8.50;99.90;;;;;;4991130;28;20230;-72
2023/04/19 02:13:49;;;;;;;10.47;6.33;;;8.40;99.90;;;;;;4990657;28;20423;-73
2023/04/19 02:16:15;;;;;;;18.43;6.63;;;8.40;99.90;;;;;;4991394;28;20262;-72
2023/04/19 02:18:40;;;;;;;14.63;6.23;;;8.40;99.90;;;;;;4990167;28;20279;-72
2023/04/19 02:21:07;;;;;;;14.37;7.80;;;8.40;99.90;;;;;;4991112;28;20216;-72
2023/04/19 02:23:34;;;;;;;12.07;5.50;;;8.40;99.90;;;;;;4991190;28;20900;-73
2023/04/19 02:26:02;;;;;;;12.37;6.83;;;8.40;99.90;;;;;;4992133;28;20477;-72
2023/04/19 02:28:28;;;;;;;13.93;6.17;;;8.40;99.90;;;;;;4990574;28;20431;-72
2023/04/19 02:30:54;;;;;;;19.50;6.60;;;8.40;99.90;;;;;;4991798;28;20458;-72
2023/04/19 02:33:22;;;;;;;9.73;5.83;;;8.40;99.90;;;;;;4991707;28;20854;-72
2023/04/19 02:35:47;;;;;;;13.50;6.97;;;8.20;99.90;;;;;;4991172;28;20846;-72
2023/04/19 02:38:13;;;;;;;15.47;6.97;;;8.40;99.90;;;;;;4990664;28;20435;-72
2023/04/19 02:40:38;;;;;;;10.37;6.03;;;8.20;99.90;;;;;;4988364;28;20271;-72
2023/04/19 02:43:04;;;;;;;21.10;8.13;;;8.30;99.90;;;;;;4989610;28;20242;-72
2023/04/19 02:45:30;;;;;;;16.47;5.70;;;8.30;99.90;;;;;;4992244;28;20635;-73
2023/04/19 02:47:56;;;;;;;9.70;6.27;;;8.30;99.90;;;;;;4992075;28;20221;-72
2023/04/19 02:50:21;;;;;;;10.73;6.00;;;8.30;99.90;;;;;;4990945;28;20202;-72
2023/04/19 02:52:47;;;;;;;14.57;6.47;;;8.20;99.90;;;;;;4991074;28;20371;-72
2023/04/19 02:55:12;;;;;;;21.90;7.50;;;8.30;99.90;;;;;;4991959;28;20179;-72
2023/04/19 02:57:38;;;;;;;11.13;6.23;;;8.30;99.90;;;;;;4991344;28;20188;-72
2023/04/19 03:00:05;;;;;;;10.77;5.50;;;8.30;99.90;;;;;;4989815;28;20187;-73
2023/04/19 03:02:30;;;;;;;16.27;6.47;;;8.30;99.90;;;;;;4988713;28;20195;-72
2023/04/19 03:04:56;;;;;;;10.33;5.90;;;8.30;99.90;;;;;;4991297;28;20789;-72
2023/04/19 03:07:22;;;;;;;11.40;6.40;;;8.30;99.90;;;;;;4989941;28;20387;-72
2023/04/19 03:09:48;;;;;;;12.83;6.00;;;8.40;99.90;;;;;;4991030;28;20207;-72
2023/04/19 03:12:13;;;;;;;10.97;6.00;;;8.30;99.90;;;;;;4990720;28;20945;-72
2023/04/19 03:14:39;;;;;;;13.10;6.90;;;8.30;99.90;;;;;;4991727;28;20187;-72
2023/04/19 03:17:05;;;;;;;13.10;7.30;;;8.20;99.90;;;;;;4989379;28;20187;-73
2023/04/19 03:19:30;;;;;;;13.43;6.80;;;8.20;99.90;;;;;;4990512;28;20191;-72
2023/04/19 03:21:56;;;;;;;8.73;5.83;;;8.20;99.90;;;;;;4990918;28;20514;-72
2023/04/19 03:24:29;;;;;;;15.60;6.33;;;8.20;99.90;;;;;;4991512;28;20641;-72
2023/04/19 03:26:55;;;;;;;20.20;6.83;;;8.20;99.90;;;;;;4991378;28;20175;-72
2023/04/19 03:29:21;;;;;;;21.87;5.73;;;8.20;99.90;;;;;;4991270;28;20423;-72
2023/04/19 03:31:46;;;;;;;10.00;5.93;;;8.20;99.90;;;;;;4991042;28;20475;-72
2023/04/19 03:34:12;;;;;;;23.23;8.20;;;8.20;99.90;;;;;;4991264;28;20187;-72
2023/04/19 03:36:39;;;;;;;15.33;7.20;;;8.20;99.90;;;;;;4991332;28;20247;-72
2023/04/19 03:39:05;;;;;;;14.50;6.27;;;8.10;99.90;;;;;;4990083;28;20180;-73
2023/04/19 03:41:30;;;;;;;13.73;6.23;;;8.10;99.90;;;;;;4989876;28;20489;-72
2023/04/19 03:43:57;;;;;;;19.63;8.70;;;8.10;99.90;;;;;;4990573;28;20844;-73
2023/04/19 03:46:23;;;;;;;19.40;7.70;;;8.10;99.90;;;;;;4990604;28;20270;-73
2023/04/19 03:48:49;;;;;;;15.50;6.60;;;8.10;99.90;;;;;;4988544;28;20438;-73
2023/04/19 03:51:15;;;;;;;14.73;6.77;;;8.10;99.90;;;;;;4990277;28;20480;-73
2023/04/19 03:53:40;;;;;;;14.03;7.47;;;8.10;99.90;;;;;;4989444;28;20191;-73
2023/04/19 03:56:06;;;;;;;10.03;6.10;;;8.20;99.90;;;;;;4989257;28;20423;-73
2023/04/19 03:58:32;;;;;;;12.77;6.37;;;8.00;99.90;;;;;;4990101;28;20259;-73
2023/04/19 04:00:59;;;;;;;14.90;7.87;;;8.00;99.90;;;;;;4989899;28;20255;-73
2023/04/19 04:03:24;;;;;;;17.33;8.30;;;8.00;99.90;;;;;;4990340;28;20198;-73
2023/04/19 04:05:50;;;;;;;14.03;7.80;;;8.00;99.90;;;;;;4987354;28;20451;-73
2023/04/19 04:08:16;;;;;;;18.77;8.10;;;8.00;99.90;;;;;;4990507;28;20187;-73
2023/04/19 04:10:41;;;;;;;18.60;8.10;;;8.00;99.90;;;;;;4989011;28;20283;-73
2023/04/19 04:13:07;;;;;;;14.30;6.50;;;8.00;99.90;;;;;;4990087;28;20191;-73
2023/04/19 04:15:32;;;;;;;20.33;9.37;;;8.00;99.90;;;;;;4988889;28;20656;-73
2023/04/19 04:17:58;;;;;;;19.17;9.03;;;8.00;99.90;;;;;;4990540;28;20238;-73
2023/04/19 04:20:23;;;;;;;16.57;7.40;;;8.00;99.90;;;;;;4990323;28;20192;-73
2023/04/19 04:22:49;;;;;;;16.43;7.90;;;8.00;99.90;;;;;;4988537;28;20625;-73
2023/04/19 04:25:15;;;;;;;13.30;7.17;;;8.00;99.90;;;;;;4990203;28;20196;-73
2023/04/19 04:27:44;;;;;;;17.43;8.27;;;8.00;99.90;;;;;;4990331;28;20199;-73
2023/04/19 04:30:11;;;;;;;11.70;7.47;;;8.00;99.90;;;;;;4988226;28;20562;-73
2023/04/19 04:32:37;;;;;;;14.93;7.60;;;8.00;99.90;;;;;;4989624;28;20453;-73
2023/04/19 04:35:06;;;;;;;15.57;7.50;;;8.00;99.90;;;;;;4989501;28;20438;-73
2023/04/19 04:37:32;;;;;;;12.33;7.83;;;8.00;99.90;;;;;;4988650;28;21906;-73
2023/04/19 04:39:59;;;;;;;19.23;8.10;;;8.00;99.90;;;;;;4989734;28;20511;-73
2023/04/19 04:42:25;;;;;;;15.43;7.97;;;8.00;99.90;;;;;;4989388;28;20435;-73
2023/04/19 04:44:51;;;;;;;22.10;7.80;;;8.00;99.90;;;;;;4988806;28;20442;-73
2023/04/19 04:47:16;;;;;;;16.20;7.70;;;8.00;99.90;;;;;;4988791;28;20184;-73
2023/04/19 04:49:42;;;;;;;15.03;8.47;;;8.00;99.90;;;;;;4989300;28;20242;-73
2023/04/19 04:52:08;;;;;;;20.80;7.53;;;8.00;99.90;;;;;;4989294;28;20194;-73
2023/04/19 04:54:34;;;;;;;21.30;8.20;;;8.00;99.90;;;;;;4988561;28;20187;-73
2023/04/19 04:57:00;;;;;;;15.97;7.93;;;8.00;99.90;;;;;;4989887;28;20546;-73
2023/04/19 04:59:26;;;;;;;15.50;8.00;;;8.00;99.90;;;;;;4988435;28;20207;-73
2023/04/19 05:01:51;;;;;;;22.37;9.47;;;8.00;99.90;;;;;;4989348;28;20183;-73
2023/04/19 05:04:18;;;;;;;16.63;7.90;;;8.00;99.90;;;;;;4988717;28;20836;-73
2023/04/19 05:06:43;;;;;;;15.90;7.73;;;8.10;99.90;;;;;;4988540;28;20213;-73
2023/04/19 05:09:10;;;;;;;28.67;8.77;;;8.10;99.90;;;;;;4986039;28;20447;-73
2023/04/19 05:11:35;;;;;;;14.43;7.40;;;8.10;99.90;;;;;;4987853;28;20299;-73
2023/04/19 05:14:02;;;;;;;15.53;7.50;;;8.10;99.90;;;;;;4990625;28;20904;-72
2023/04/19 05:16:27;;;;;;;17.30;7.30;;;8.10;99.90;;;;;;4991495;28;20188;-73
2023/04/19 05:18:53;;;;;;;18.20;8.00;;;8.10;99.90;;;;;;4990588;28;20457;-73
2023/04/19 05:21:19;;;;;;;14.97;8.50;;;8.10;99.90;;;;;;4989307;28;20264;-73
2023/04/19 05:23:44;;;;;;;14.93;8.10;;;8.20;99.90;;;;;;4990836;28;20745;-73
2023/04/19 05:26:11;;;;;;;22.07;7.33;;;8.10;99.90;;;;;;4992900;28;20218;-73
2023/04/19 05:28:37;;;;;;;19.50;8.57;;;8.30;99.90;;;;;;4993408;28;20650;-73
2023/04/19 05:31:03;;;;;;;20.30;9.27;;;8.30;99.90;;;;;;4991082;28;20506;-73
2023/04/19 05:33:29;;;;;;;15.27;8.27;;;8.40;99.90;;;;;;4988985;28;20463;-72
2023/04/19 05:35:54;;;;;;;18.80;8.30;;;8.40;99.90;;;;;;4992721;28;20203;-73
2023/04/19 05:38:20;;;;;;;14.83;8.17;;;8.40;99.90;;;;;;4991063;28;20207;-73
2023/04/19 05:40:46;;;;;;;14.10;7.90;;;8.40;99.90;;;;;;4990058;28;20186;-73
2023/04/19 05:43:11;;;;;;;14.43;7.13;;;8.60;99.90;;;;;;4990663;28;20194;-73
2023/04/19 05:45:37;;;;;;;17.70;7.87;;;8.60;99.90;;;;;;4991225;28;20620;-73
2023/04/19 05:48:03;;;;;;;13.03;6.80;;;8.60;99.90;;;;;;4993195;28;20258;-73
2023/04/19 05:50:28;;;;;;;19.67;8.13;;;8.60;99.90;;;;;;4990046;28;20419;-73
2023/04/19 05:52:54;;;;;;;15.33;8.00;;;8.60;99.90;;;;;;4992364;28;20266;-73
2023/04/19 05:55:20;;;;;;;15.07;7.93;;;8.60;99.90;;;;;;4991608;28;20246;-73
2023/04/19 05:57:45;;;;;;;14.43;6.47;;;8.60;99.90;;;;;;4993682;28;20187;-73
2023/04/19 06:00:11;;;;;;;13.03;5.93;;;8.60;99.90;;;;;;4992789;28;20192;-73
2023/04/19 06:02:37;;;;;;;27.37;7.80;;;8.50;99.90;;;;;;4993192;28;20183;-73
2023/04/19 06:05:03;;;;;;;17.70;7.30;;;8.40;99.90;;;;;;4990631;28;20550;-73
2023/04/19 06:07:30;;;;;;;17.60;8.90;;;8.40;99.90;;;;;;4993106;28;20179;-73
2023/04/19 06:09:55;;;;;;;24.73;7.33;;;8.30;99.90;;;;;;4992052;28;20458;-73
2023/04/19 06:12:21;;;;;;;13.30;7.43;;;8.30;99.90;;;;;;4991578;28;20423;-73
2023/04/19 06:14:47;;;;;;;17.63;7.07;;;8.30;99.90;;;;;;4991322;28;20270;-73
2023/04/19 06:17:13;;;;;;;13.40;7.20;;;8.30;99.90;;;;;;4991575;28;20180;-73
2023/04/19 06:19:38;;;;;;;15.17;7.90;;;8.40;99.90;;;;;;4990780;28;20336;-74
2023/04/19 06:22:04;;;;;;;13.53;7.13;;;8.40;99.90;;;;;;4990872;28;20521;-73
2023/04/19 06:24:30;;;;;;;15.53;7.33;;;8.40;99.90;;;;;;4991252;28;20191;-73
2023/04/19 06:26:56;;;;;;;15.83;6.40;;;8.40;99.90;;;;;;4991658;28;20522;-73
2023/04/19 06:29:23;;;;;;;11.33;6.97;;;8.40;99.90;;;;;;4989141;28;20214;-73
2023/04/19 06:31:48;;;;;;;13.57;7.67;;;8.40;99.90;;;;;;4991182;28;20470;-73
2023/04/19 06:34:14;;;;;;;18.07;8.60;;;8.50;99.90;;;;;;4991139;28;20423;-73
2023/04/19 06:36:40;;;;;;;19.33;8.80;;;8.40;99.90;;;;;;4990634;28;20184;-73
2023/04/19 06:39:06;;;;;;;13.67;7.17;;;8.40;99.90;;;;;;4990485;28;20470;-73
2023/04/19 06:41:32;;;;;;;16.47;7.60;;;8.40;99.90;;;;;;4992605;28;20794;-73
2023/04/19 06:43:57;;;;;;;15.43;7.60;;;8.50;99.90;;;;;;4991240;28;20459;-73
2023/04/19 06:46:23;;;;;;;16.63;8.23;;;8.50;99.90;;;;;;4991197;28;20192;-73
2023/04/19 06:48:49;;;;;;;20.20;8.80;;;8.50;99.90;;;;;;4989439;28;20187;-74
2023/04/19 06:51:15;;;;;;;18.23;9.07;;;8.60;99.90;;;;;;4990762;28;20744;-74
2023/04/19 06:53:41;;;;;;;14.67;6.80;;;8.60;99.90;;;;;;4991807;28;20549;-71
2023/04/19 06:56:06;;;;;;;15.33;7.03;;;8.70;99.90;;;;;;4991070;28;20238;-73
2023/04/19 06:58:32;;;;;;;16.27;7.30;;;8.70;99.90;;;;;;4991342;28;20188;-75
2023/04/19 07:01:00;;;;;;;14.80;7.53;;;8.70;99.90;;;;;;4992462;28;20192;-74
2023/04/19 07:03:25;;;;;;;12.97;6.70;;;8.70;99.90;;;;;;4991679;28;20195;-74
2023/04/19 07:05:51;;;;;;;15.53;6.67;;;8.90;99.90;;;;;;4989217;28;20443;-74
2023/04/19 07:08:17;;;;;;;16.47;6.90;;;8.90;99.90;;;;;;4990448;28;20531;-74
2023/04/19 07:10:43;;;;;;;16.63;7.43;;;8.80;99.90;;;;;;4990581;28;20731;-74
2023/04/19 07:13:11;;;;;;;13.60;6.50;;;8.90;99.90;;;;;;4989849;28;20543;-74
2023/04/19 07:15:37;;;;;;;14.70;7.67;;;9.00;99.90;;;;;;4991010;28;20655;-74
2023/04/19 07:18:03;;;;;;;13.77;7.77;;;9.10;99.90;;;;;;4990876;28;20438;-74
2023/04/19 07:20:30;;;;;;;11.50;6.40;;;9.10;99.90;;;;;;4990632;28;20214;-73
2023/04/19 07:22:58;;;;;;;18.13;8.90;;;9.10;99.90;;;;;;4988704;28;20218;-73
2023/04/19 07:25:24;;;;;;;11.77;6.57;;;9.00;99.90;;;;;;4990160;28;20529;-73
2023/04/19 07:27:55;;;;;;;14.40;6.87;;;9.10;99.90;;;;;;4990257;28;20572;-73
2023/04/19 07:30:21;;;;;;;18.73;6.07;;;9.10;99.90;;;;;;4990109;28;20207;-73
2023/04/19 07:32:47;;;;;;;10.03;6.20;;;9.20;99.90;;;;;;4988986;28;20439;-73
2023/04/19 07:35:12;;;;;;;14.83;7.40;;;9.20;99.90;;;;;;4987964;28;20423;-73
2023/04/19 07:37:38;;;;;;;10.23;6.43;;;9.20;99.90;;;;;;4982661;28;20189;-74
2023/04/19 07:40:04;;;;;;;14.20;6.40;;;9.30;99.90;;;;;;4987989;28;20621;-74
2023/04/19 07:42:30;;;;;;;12.70;7.27;;;9.40;99.90;;;;;;4986931;28;20649;-74
2023/04/19 07:44:56;;;;;;;12.73;6.60;;;9.40;99.90;;;;;;4987152;28;20441;-74
2023/04/19 07:47:21;;;;;;;13.40;6.23;;;9.50;99.90;;;;;;4988749;28;20692;-74
2023/04/19 07:49:51;;;;;;;21.33;8.57;;;9.60;99.90;;;;;;4986236;28;20295;-74
2023/04/19 07:52:17;;;;;;;13.73;6.80;;;9.50;99.90;;;;;;4987019;28;20188;-74
2023/04/19 07:54:43;;;;;;;13.77;7.20;;;9.60;99.90;;;;;;4987844;28;20513;-73
2023/04/19 07:57:08;;;;;;;13.10;5.50;;;9.70;99.90;;;;;;4988302;28;20510;-74
2023/04/19 07:59:34;;;;;;;13.30;6.13;;;9.70;99.90;;;;;;4989879;28;20211;-74
2023/04/19 08:02:00;;;;;;;20.70;6.70;;;9.70;99.90;;;;;;4987944;28;20187;-74
2023/04/19 08:04:25;;;;;;;13.00;5.70;;;9.70;99.90;;;;;;4987820;28;20195;-74
2023/04/19 08:06:51;;;;;;;11.03;6.07;;;9.80;99.90;;;;;;4986354;28;20647;-74
2023/04/19 08:09:17;;;;;;;10.03;6.20;;;9.90;99.90;;;;;;4987870;28;20195;-74
2023/04/19 08:11:43;;;;;;;13.90;7.17;;;10.10;99.90;;;;;;4987730;28;20797;-74
2023/04/19 08:14:09;;;;;;;17.30;6.43;;;10.30;99.90;;;;;;4989327;28;20446;-74
2023/04/19 08:16:35;;;;;;;14.43;5.50;;;10.40;99.90;;;;;;4988406;28;20663;-74
2023/04/19 08:19:00;;;;;;;14.00;5.23;;;10.50;99.90;;;;;;4988433;28;20183;-74
2023/04/19 08:21:26;;;;;;;8.70;5.20;;;10.50;99.90;;;;;;4988439;28;20191;-74
2023/04/19 08:23:52;;;;;;;12.20;6.00;;;10.60;99.90;;;;;;4988597;28;20600;-74
2023/04/19 08:26:17;;;;;;;10.63;5.20;;;10.50;99.90;;;;;;4990724;28;20191;-74
2023/04/19 08:28:43;;;;;;;12.93;5.57;;;10.60;99.90;;;;;;4990882;28;20430;-73
2023/04/19 08:31:09;;;;;;;16.30;5.50;;;10.80;99.90;;;;;;4991599;28;20294;-74
2023/04/19 08:33:34;;;;;;;10.90;5.80;;;11.00;99.90;;;;;;4987089;28;20656;-74
2023/04/19 08:36:00;;;;;;;13.20;5.20;;;11.20;99.90;;;;;;4988150;28;20192;-73
2023/04/19 08:38:26;;;;;;;9.20;5.70;;;11.60;99.90;;;;;;4988535;28;20183;-73
2023/04/19 08:40:54;;;;;;;11.70;5.70;;;11.60;99.90;;;;;;4990858;28;20266;-73
2023/04/19 08:43:20;;;;;;;10.80;5.50;;;12.30;99.90;;;;;;4988501;28;20567;-73
2023/04/19 08:45:48;;;;;;;10.77;5.70;;;12.60;99.90;;;;;;4986921;28;20497;-73
2023/04/19 08:48:15;;;;;;;9.23;4.77;;;12.60;99.90;;;;;;4987045;28;20474;-74
2023/04/19 08:50:41;;;;;;;14.50;6.03;;;12.40;99.90;;;;;;4987193;28;20462;-73
2023/04/19 08:53:09;;;;;;;11.47;5.67;;;12.40;99.90;;;;;;4988286;28;20510;-73
2023/04/19 08:55:37;;;;;;;8.60;5.00;;;12.60;99.90;;;;;;4988267;28;20721;-73
2023/04/19 08:58:03;;;;;;;7.70;4.97;;;12.80;99.90;;;;;;4989452;28;20453;-72
2023/04/19 09:00:32;;;;;;;11.00;4.93;;;12.60;99.90;;;;;;4994344;28;20509;-72
2023/04/19 09:02:58;;;;;;;6.23;4.00;;;12.70;99.90;;;;;;4992161;28;20423;-72
2023/04/19 09:05:23;;;;;;;10.53;5.50;;;12.80;99.90;;;;;;4993116;28;20457;-72
2023/04/19 09:07:49;;;;;;;9.47;5.23;;;13.00;99.90;;;;;;4992379;28;20616;-72
2023/04/19 09:10:18;;;;;;;10.30;5.77;;;12.80;99.90;;;;;;4992855;28;20191;-72
2023/04/19 09:13:02;;;;;;;14.20;6.63;;;12.10;99.90;;;;;;4992726;28;20434;-71
2023/04/19 09:15:40;;;;;;;9.20;5.33;;;11.90;99.90;;;;;;4992014;28;20477;-72
2023/04/19 09:18:09;;;;;;;11.73;5.20;;;11.70;99.90;;;;;;4992764;28;20414;-72
2023/04/19 09:20:40;;;;;;;13.53;5.60;;;11.70;99.90;;;;;;4992484;28;20454;-72
2023/04/19 09:23:08;;;;;;;9.07;5.13;;;11.60;99.90;;;;;;4991640;28;20431;-72
2023/04/19 09:25:34;;;;;;;10.83;4.70;;;12.00;99.90;;;;;;4992109;28;20783;-72
2023/04/19 09:28:13;;;;;;;8.33;4.93;;;12.20;99.90;;;;;;4993089;28;20419;-72
2023/04/19 09:30:40;;;;;;;7.00;3.80;;;12.30;99.90;;;;;;4993102;28;20466;-72
2023/04/19 09:33:06;;;;;;;9.37;4.57;;;12.20;99.90;;;;;;4992767;28;20442;-72
2023/04/19 09:35:40;;;;;;;12.23;4.90;;;12.10;99.90;;;;;;4991394;28;20918;-72
2023/04/19 09:38:06;;;;;;;10.93;4.83;;;12.20;99.90;;;;;;4993166;28;20922;-72
2023/04/19 09:40:31;;;;;;;7.27;4.00;;;12.00;99.90;;;;;;4992210;28;20426;-72
2023/04/19 09:42:57;;;;;;;10.40;4.33;;;12.20;99.90;;;;;;4991442;28;20589;-73
2023/04/19 09:45:23;;;;;;;6.40;3.47;;;12.30;99.90;;;;;;4990296;28;20628;-73
2023/04/19 09:48:07;;;;;;;8.43;4.10;;;12.60;99.90;;;;;;4991706;28;20183;-73
2023/04/19 09:50:33;;;;;;;6.53;3.83;;;13.10;99.90;;;;;;4989912;28;20207;-73
2023/04/19 09:52:59;;;;;;;7.07;3.30;;;13.20;99.70;;;;;;4990311;28;20928;-73
2023/04/19 09:55:26;;;;;;;8.57;4.67;;;13.50;98.70;;;;;;4991883;28;20780;-73
2023/04/19 09:57:52;;;;;;;7.57;4.10;;;13.40;98.80;;;;;;4992836;28;20765;-73
2023/04/19 10:00:20;;;;;;;9.77;4.83;;;13.60;98.80;;;;;;4992425;28;20439;-73
2023/04/19 10:02:53;;;;;;;11.33;4.27;;;13.40;98.40;;;;;;4991147;28;20449;-72
2023/04/19 10:05:20;;;;;;;6.77;3.90;;;13.60;98.70;;;;;;4990185;28;20462;-72
2023/04/19 10:07:46;;;;;;;14.73;4.83;;;13.60;98.70;;;;;;4991787;28;20423;-72
2023/04/19 10:10:15;;;;;;;9.27;4.50;;;13.70;99.70;;;;;;4990361;28;20471;-72
2023/04/19 10:12:44;;;;;;;11.23;4.30;;;14.00;98.30;;;;;;4989921;28;20419;-73
2023/04/19 10:15:12;;;;;;;7.77;3.43;;;14.00;96.10;;;;;;4991212;28;20770;-73
2023/04/19 10:17:38;;;;;;;8.40;4.30;;;13.90;97.00;;;;;;4992990;28;20415;-73
2023/04/19 10:20:09;;;;;;;10.70;3.53;;;13.90;98.00;;;;;;4990321;28;20494;-73
2023/04/19 10:22:38;;;;;;;8.23;4.00;;;14.10;96.80;;;;;;4989916;28;20483;-73
2023/04/19 10:25:11;;;;;;;6.70;4.13;;;14.20;97.30;;;;;;4992387;28;20937;-72
2023/04/19 10:27:44;;;;;;;14.83;4.30;;;14.30;96.30;;;;;;4992159;28;20919;-72
2023/04/19 10:30:27;;;;;;;6.67;3.40;;;14.40;96.70;;;;;;4991609;28;20458;-72
2023/04/19 10:32:58;;;;;;;7.40;3.87;;;14.50;95.70;;;;;;4990915;28;20938;-72
2023/04/19 10:35:33;;;;;;;7.00;4.00;;;14.20;95.80;;;;;;4988936;28;20888;-72
2023/04/19 10:38:01;;;;;;;6.77;3.43;;;14.60;95.40;;;;;;4989339;28;20427;-72
2023/04/19 10:40:49;;;;;;;5.10;3.00;;;14.80;94.80;;;;;;4989660;28;21034;-72
2023/04/19 10:43:16;;;;;;;4.57;3.00;;;14.60;95.40;;;;;;4988736;28;20821;-72
2023/04/19 10:45:42;;;;;;;15.13;4.03;;;14.50;94.60;;;;;;4989533;28;20459;-72
2023/04/19 10:48:34;;;;;;;10.43;3.40;;;14.50;94.30;;;;;;4989503;28;20473;-72
2023/04/19 10:51:02;;;;;;;4.40;3.17;;;14.40;93.90;;;;;;4988603;28;20254;-72
2023/04/19 10:53:58;;;;;;;8.40;4.27;;;14.10;94.60;;;;;;4988862;28;20511;-72
2023/04/19 10:56:33;;;;;;;9.00;4.10;;;13.60;96.90;;;;;;4966734;28;20489;-72
2023/04/19 10:59:04;;;;;;;17.63;4.93;;;13.30;96.80;;;;;;4989995;28;20473;-72
2023/04/19 11:01:44;;;;;;;6.73;4.43;;;13.00;97.70;;;;;;4987893;28;20425;-73
2023/04/19 11:04:12;;;;;;;8.90;4.37;;;12.60;98.60;;;;;;4990618;28;20717;-72
2023/04/19 11:07:05;;;;;;;12.33;5.57;;;12.20;99.20;;;;;;4989175;28;20436;-72
2023/04/19 11:09:34;;;;;;;11.03;4.60;;;12.10;99.70;;;;;;4985625;28;20709;-72
2023/04/19 11:12:07;;;;;;;9.93;5.33;;;12.10;99.20;;;;;;4987839;28;20597;-72
2023/04/19 11:14:44;;;;;;;6.80;4.03;;;11.90;99.90;;;;;;4987876;28;20520;-72
2023/04/19 11:17:29;;;;;;;9.97;5.00;;;12.00;99.90;;;;;;4988041;28;20430;-72
2023/04/19 11:19:56;;;;;;;8.47;4.40;;;12.10;99.10;;;;;;4985656;28;20904;-73
2023/04/19 11:22:46;;;;;;;8.60;4.77;;;12.20;99.00;;;;;;4989126;28;20999;-71
2023/04/19 11:25:12;;;;;;;7.20;3.47;;;12.40;99.00;;;;;;4987770;28;20443;-71
2023/04/19 11:27:39;;;;;;;6.57;3.77;;;12.30;98.30;;;;;;4988429;28;20434;-72
2023/04/19 11:30:08;;;;;;;11.70;4.20;;;12.30;98.20;;;;;;4988571;28;20203;-72
2023/04/19 11:32:35;;;;;;;5.83;3.70;;;12.50;98.30;;;;;;4989182;28;20514;-72
2023/04/19 11:35:08;;;;;;;6.47;3.10;;;12.60;97.80;;;;;;4986540;28;20423;-72
2023/04/19 11:37:37;;;;;;;8.33;3.87;;;12.60;98.00;;;;;;4987827;28;20855;-71
2023/04/19 11:40:05;;;;;;;7.40;3.43;;;12.80;97.30;;;;;;4987300;28;20433;-71
2023/04/19 11:42:31;;;;;;;9.20;4.83;;;12.60;97.90;;;;;;4988200;28;20430;-71
2023/04/19 11:44:58;;;;;;;10.40;4.53;;;12.50;98.50;;;;;;4988642;28;20756;-71
2023/04/19 11:47:27;;;;;;;7.77;4.13;;;12.40;98.20;;;;;;4987746;28;20519;-71
2023/04/19 11:49:55;;;;;;;10.77;4.40;;;12.20;99.10;;;;;;4988342;28;20732;-71
2023/04/19 11:52:24;;;;;;;6.80;3.00;;;12.00;99.10;;;;;;4987008;28;20788;-71
2023/04/19 11:54:53;;;;;;;11.70;4.90;;;11.70;99.50;;;;;;4987762;28;20434;-71
2023/04/19 11:57:29;;;;;;;10.63;3.63;;;11.60;99.80;;;;;;4986701;28;20431;-71
2023/04/19 12:00:07;;;;;;;9.30;4.90;;;11.50;99.90;;;;;;4986679;28;20446;-71
2023/04/19 12:02:37;;;;;;;13.40;3.90;;;11.50;99.80;;;;;;4985623;28;20432;-71
2023/04/19 12:05:10;;;;;;;7.40;4.03;;;11.40;99.90;;;;;;4987507;28;20443;-71
2023/04/19 12:07:36;;;;;;;9.70;5.23;;;11.40;99.90;;;;;;4986741;28;20423;-71
2023/04/19 12:10:12;;;;;;;8.03;4.03;;;11.40;99.90;;;;;;4988454;28;20423;-71
2023/04/19 12:12:38;;;;;;;10.60;4.97;;;11.40;99.90;;;;;;4988145;28;20338;-71
2023/04/19 12:15:05;;;;;;;10.40;4.40;;;11.40;99.90;;;;;;4987152;28;20510;-71
2023/04/19 12:17:30;;;;;;;9.93;4.03;;;11.50;99.90;;;;;;4987256;28;20262;-71
2023/04/19 12:19:56;;;;;;;9.07;4.63;;;11.50;99.90;;;;;;4986721;28;20852;-71
2023/04/19 12:22:24;;;;;;;9.40;4.80;;;11.40;99.90;;;;;;4987710;28;20648;-72
2023/04/19 12:24:52;;;;;;;11.43;4.63;;;11.40;99.90;;;;;;4985794;28;20187;-71
2023/04/19 12:27:18;;;;;;;9.07;4.93;;;11.20;99.90;;;;;;4988837;28;20415;-71
2023/04/19 12:29:44;;;;;;;13.20;4.67;;;11.10;99.90;;;;;;4986555;28;20920;-71
2023/04/19 12:32:10;;;;;;;10.40;5.77;;;11.00;99.90;;;;;;4986319;28;20482;-71
2023/04/19 12:34:36;;;;;;;10.37;5.00;;;10.80;99.90;;;;;;4985819;28;20427;-72
2023/04/19 12:37:03;;;;;;;15.03;5.20;;;10.80;99.90;;;;;;4988055;28;20184;-73
2023/04/19 12:39:29;;;;;;;8.43;4.60;;;10.70;99.90;;;;;;4986641;28;20410;-72
2023/04/19 12:41:55;;;;;;;11.40;5.70;;;10.60;99.90;;;;;;4986820;28;20424;-72
2023/04/19 12:44:21;;;;;;;11.53;6.00;;;10.60;99.90;;;;;;4989030;28;20466;-71